Time;durP1;ratioP1;P1;durP2;ratioP2;P2;SDS_P1;SDS_P2;PMS_P1;PMS_P2;Temp;Humidity;BMP_temperature;BMP_pressure;BME280_temperature;BME280_humidity;BME280_pressure;Samples;Min_cycle;Max_cycle;Signal;HPM_P1;HPM_P2
2023/04/12 07:23:08;;;;;;;3.45;3.10;;;;;;;-145.79;93.57;76872.84;5270866;28;20744;-75
2023/04/12 07:25:42;;;;;;;4.20;3.03;;;;;;;-145.79;94.14;76868.59;5259100;28;20044;-75
2023/04/12 07:28:13;;;;;;;3.15;2.40;;;;;;;-145.79;94.31;76870.72;5262101;28;20059;-76
2023/04/12 07:30:45;;;;;;;3.17;2.88;;;;;;;-145.79;94.26;76862.25;5279554;28;20052;-76
2023/04/12 07:33:16;;;;;;;4.53;2.67;;;;;;;-145.79;94.63;76853.75;5270135;28;20057;-75
2023/04/12 07:35:47;;;;;;;4.28;2.60;;;;;;;-145.79;93.94;76858.00;5258020;28;20455;-76
2023/04/12 07:38:19;;;;;;;6.47;2.92;;;;;;;-145.79;93.02;76849.53;5258278;28;20033;-75
2023/04/12 07:40:50;;;;;;;3.58;2.75;;;;;;;-145.79;92.39;76843.16;5258724;28;20441;-76
2023/04/12 07:43:22;;;;;;;5.95;2.58;;;;;;;-145.79;91.82;76841.03;5258342;28;20044;-76
2023/04/12 07:45:55;;;;;;;7.93;3.17;;;;;;;-145.79;92.39;76826.22;5258770;28;20046;-76
2023/04/12 07:48:26;;;;;;;4.72;3.20;;;;;;;-145.79;91.82;76824.09;5258393;28;20389;-76
2023/04/12 07:50:57;;;;;;;5.80;2.88;;;;;;;-145.79;91.18;76819.84;5258308;28;20044;-75
2023/04/12 07:53:28;;;;;;;6.72;3.38;;;;;;;-145.79;90.72;76821.97;5258620;28;20025;-76
2023/04/12 07:56:02;;;;;;;10.82;3.63;;;;;;;-145.79;91.14;76817.72;5258562;28;20377;-76
2023/04/12 07:58:34;;;;;;;6.82;3.78;;;;;;;-145.79;91.73;76805.00;5257777;28;20039;-76
2023/04/12 08:01:06;;;;;;;8.90;3.22;;;;;;;-145.79;91.63;76807.13;5258634;28;20381;-78
2023/04/12 08:03:40;;;;;;;8.25;3.28;;;;;;;-145.79;90.50;76813.50;5258358;28;20036;-76
2023/04/12 08:06:12;;;;;;;6.40;2.90;;;;;;;-145.79;90.00;76813.50;5257823;28;20115;-76
2023/04/12 08:08:43;;;;;;;5.88;2.67;;;;;;;-145.79;90.35;76809.25;5258417;28;20100;-76
2023/04/12 08:11:14;;;;;;;12.10;8.48;;;;;;;-145.79;90.81;76815.63;5257709;28;20083;-77
2023/04/12 08:13:46;;;;;;;6.72;3.13;;;;;;;-145.79;89.60;76828.31;5258214;28;20035;-76
2023/04/12 08:16:18;;;;;;;4.57;3.17;;;;;;;-145.79;88.55;76824.09;5258296;28;20044;-76
2023/04/12 08:18:50;;;;;;;4.80;2.97;;;;;;;-145.79;88.67;76841.03;5265999;28;20021;-77
2023/04/12 08:21:22;;;;;;;4.85;3.13;;;;;;;-145.79;90.50;76826.22;5278367;28;20043;-77
2023/04/12 08:23:56;;;;;;;5.00;3.53;;;;;;;-145.79;90.13;76813.50;5278214;28;20430;-77
2023/04/12 08:26:28;;;;;;;5.82;3.22;;;;;;;-145.79;89.14;76817.72;5277969;28;20047;-77
2023/04/12 08:29:00;;;;;;;6.13;3.47;;;;;;;-145.79;88.20;76819.84;5244603;28;20040;-72
2023/04/12 08:31:32;;;;;;;7.03;3.28;;;;;;;-145.79;88.77;76794.41;5247271;28;20041;-73
2023/04/12 08:34:04;;;;;;;5.57;4.03;;;;;;;-145.79;89.05;76796.53;5240082;28;20068;-75
2023/04/12 08:36:35;;;;;;;4.28;3.88;;;;;;;-145.79;88.83;76788.06;5242102;28;20392;-73
2023/04/12 08:39:06;;;;;;;7.53;4.93;;;;;;;-145.79;88.42;76777.47;5231873;28;20021;-73
2023/04/12 08:41:38;;;;;;;8.68;4.78;;;;;;;-145.79;88.27;76775.34;5240808;28;20388;-76
2023/04/12 08:44:10;;;;;;;7.28;4.60;;;;;;;-145.79;89.26;76741.44;5232359;28;20088;-77
2023/04/12 08:46:43;;;;;;;7.28;5.22;;;;;;;-145.79;89.31;76737.19;5243180;28;20557;-77
2023/04/12 08:49:15;;;;;;;6.88;4.82;;;;;;;-145.79;88.99;76724.47;5234163;28;20148;-76
2023/04/12 08:51:47;;;;;;;9.80;5.63;;;;;;;-145.79;87.16;76735.06;5230761;28;20482;-77
2023/04/12 08:54:18;;;;;;;9.82;5.35;;;;;;;-145.79;87.08;76726.59;5236768;28;20075;-76
2023/04/12 08:56:52;;;;;;;8.13;4.85;;;;;;;-145.79;87.04;76724.47;5242999;28;20038;-76
2023/04/12 08:59:26;;;;;;;7.80;5.90;;;;;;;-145.79;87.71;76711.75;5240979;28;20033;-76
2023/04/12 09:01:57;;;;;;;7.75;5.13;;;;;;;-145.79;86.88;76718.13;5231548;28;20022;-75
2023/04/12 09:04:29;;;;;;;8.35;4.82;;;;;;;-145.79;87.44;76699.06;5237583;28;20060;-76
2023/04/12 09:07:01;;;;;;;11.23;5.68;;;;;;;-145.79;86.25;76690.56;5238943;28;20037;-76
2023/04/12 09:09:46;;;;;;;7.75;4.80;;;;;;;-145.79;84.95;76682.09;5236452;28;20080;-76
2023/04/12 09:12:21;;;;;;;9.73;4.55;;;;;;;-145.79;84.73;76665.16;5240889;28;20032;-76
2023/04/12 09:15:07;;;;;;;14.82;6.90;;;;;;;-145.79;83.94;76669.38;5223070;28;20449;-78
2023/04/12 09:17:40;;;;;;;16.77;5.32;;;;;;;-145.79;83.78;76673.63;5226883;28;20465;-74
2023/04/12 09:20:17;;;;;;;10.15;5.75;;;;;;;-145.79;84.53;76690.56;5242682;28;20083;-75
2023/04/12 09:22:49;;;;;;;11.68;6.38;;;;;;;-145.79;84.94;76675.75;5235059;28;20393;-75
2023/04/12 09:25:40;;;;;;;11.88;6.78;;;;;;;-145.79;83.14;76665.16;5221930;28;20027;-75
2023/04/12 09:28:28;;;;;;;11.15;6.57;;;;;;;-145.79;84.50;76643.94;5220853;28;20484;-73
2023/04/12 09:31:00;;;;;;;11.90;6.25;;;;;;;-145.79;84.38;76627.00;5221536;28;20029;-74
2023/04/12 09:33:36;;;;;;;11.80;6.50;;;;;;;-145.79;81.51;76624.88;5231117;28;20033;-73
2023/04/12 09:36:12;;;;;;;14.23;7.68;;;;;;;-145.79;81.13;76612.16;5237038;28;20029;-73
2023/04/12 09:39:00;;;;;;;13.63;7.50;;;;;;;-145.79;80.96;76605.81;5240623;28;20505;-73
2023/04/12 09:41:32;;;;;;;21.25;7.70;;;;;;;-145.79;79.60;76622.75;5237881;28;20033;-72
2023/04/12 09:44:04;;;;;;;14.20;7.63;;;;;;;-145.79;78.25;76622.75;5239502;28;20136;-73
2023/04/12 09:46:35;;;;;;;13.80;5.80;;;;;;;-145.79;79.02;76627.00;5241687;28;20442;-73
2023/04/12 09:49:07;;;;;;;14.02;8.80;;;;;;;-145.79;78.37;76614.28;5241332;28;20115;-74
2023/04/12 09:51:38;;;;;;;12.07;6.65;;;;;;;-145.79;77.13;76607.91;5244099;28;20031;-73
2023/04/12 09:54:10;;;;;;;19.95;10.20;;;;;;;-145.79;74.55;76605.81;5245946;28;20134;-73
2023/04/12 09:56:43;;;;;;;21.73;6.10;;;;;;;-145.79;74.63;76603.69;5244665;28;20033;-72
2023/04/12 09:59:16;;;;;;;68.00;10.93;;;;;;;-145.79;75.61;76586.72;5245552;28;20088;-72
2023/04/12 10:01:54;;;;;;;13.30;6.85;;;;;;;-145.79;75.90;76576.13;5245405;28;20436;-72
2023/04/12 10:04:26;;;;;;;17.23;6.32;;;;;;;-145.79;70.13;76590.97;5241070;28;20354;-72
2023/04/12 10:07:00;;;;;;;13.50;6.70;;;;;;;-145.79;73.11;76584.59;5241924;28;20071;-73
2023/04/12 10:09:39;;;;;;;14.48;6.35;;;;;;;-145.79;73.87;76588.84;5242051;28;20028;-71
2023/04/12 10:12:10;;;;;;;17.77;6.55;;;;;;;-145.79;74.86;76590.97;5232203;28;20025;-73
2023/04/12 10:14:42;;;;;;;13.07;6.70;;;;;;;-145.79;73.64;76614.28;5242014;28;20036;-76
2023/04/12 10:17:14;;;;;;;16.23;7.68;;;;;;;-145.79;73.60;76622.75;5241899;28;20029;-74
2023/04/12 10:19:47;;;;;;;15.90;6.03;;;;;;;-145.79;72.56;76620.63;5233116;28;20485;-74
2023/04/12 10:22:18;;;;;;;13.40;6.22;;;;;;;-145.79;71.25;76629.13;5220849;28;20091;-74
2023/04/12 10:24:50;;;;;;;11.98;4.97;;;;;;;-145.79;70.63;76622.75;5235549;28;20033;-73
2023/04/12 10:27:27;;;;;;;15.93;6.07;;;;;;;-145.79;71.46;76610.03;5238723;28;20340;-74
2023/04/12 10:30:22;;;;;;;13.75;5.97;;;;;;;-145.79;70.32;76610.03;5240863;28;20025;-74
2023/04/12 10:33:02;;;;;;;10.93;6.00;;;;;;;-145.79;68.81;76610.03;5240939;28;20152;-74
2023/04/12 10:35:52;;;;;;;15.07;4.90;;;;;;;-145.79;67.71;76618.53;5241118;28;20045;-74
2023/04/12 10:38:25;;;;;;;13.63;4.25;;;;;;;-145.79;64.22;76639.72;5241003;28;20508;-74
2023/04/12 10:41:17;;;;;;;12.45;3.75;;;;;;;-145.79;63.16;76635.47;5238964;28;20049;-74
2023/04/12 10:43:50;;;;;;;14.10;4.32;;;;;;;-145.79;62.93;76660.91;5229430;28;20325;-73
2023/04/12 10:46:44;;;;;;;11.25;3.88;;;;;;;-145.79;65.51;76682.09;5240422;28;20465;-73
2023/04/12 10:49:16;;;;;;;19.10;4.65;;;;;;;-145.79;69.15;76716.00;5240592;28;20236;-72
2023/04/12 10:52:02;;;;;;;35.25;20.17;;;;;;;-145.79;72.48;76699.06;5240545;28;20029;-75
2023/04/12 10:54:35;;;;;;;13.55;4.70;;;;;;;-145.79;72.60;76724.47;5239434;28;20393;-75
2023/04/12 10:57:07;;;;;;;10.75;4.72;;;;;;;-145.79;73.34;76711.75;5240808;28;20030;-75
2023/04/12 10:59:56;;;;;;;14.77;6.28;;;;;;;-145.79;74.16;76699.06;5240441;28;20033;-74
2023/04/12 11:02:27;;;;;;;12.35;5.57;;;;;;;-145.79;73.95;76699.06;5240776;28;20025;-75
2023/04/12 11:05:03;;;;;;;15.30;6.57;;;;;;;-145.79;76.14;76705.41;5239899;28;20026;-74
2023/04/12 11:07:43;;;;;;;13.75;6.60;;;;;;;-145.79;77.00;76707.53;5233754;28;20064;-72
2023/04/12 11:10:15;;;;;;;14.85;6.90;;;;;;;-145.79;77.99;76696.94;5233292;28;20075;-73
2023/04/12 11:12:54;;;;;;;17.92;13.52;;;;;;;-145.79;78.70;76707.53;5238665;28;20034;-73
2023/04/12 11:15:26;;;;;;;17.13;7.20;;;;;;;-145.79;80.25;76701.16;5227737;28;20034;-73
2023/04/12 11:17:59;;;;;;;13.50;6.63;;;;;;;-145.79;80.67;76699.06;5240760;28;20026;-72
2023/04/12 11:20:32;;;;;;;13.57;5.88;;;;;;;-145.79;80.65;76709.66;5228452;28;20013;-71
2023/04/12 11:23:04;;;;;;;15.45;5.90;;;;;;;-145.79;80.80;76707.53;5239741;28;20119;-72
2023/04/12 11:25:36;;;;;;;12.90;6.18;;;;;;;-145.79;82.05;76716.00;5240140;28;20017;-71
2023/04/12 11:28:18;;;;;;;12.70;6.32;;;;;;;-145.79;80.90;76707.53;5239587;28;20462;-72
2023/04/12 11:30:53;;;;;;;13.15;5.60;;;;;;;-145.79;80.63;76699.06;5240810;28;20380;-73
2023/04/12 11:33:34;;;;;;;13.88;5.00;;;;;;;-145.79;77.74;76690.56;5240150;28;20033;-70
2023/04/12 11:36:11;;;;;;;18.42;5.80;;;;;;;-145.79;76.88;76692.69;5240118;28;20104;-72
2023/04/12 11:38:44;;;;;;;11.02;4.32;;;;;;;-145.79;76.98;76682.09;5240218;28;20040;-72
2023/04/12 11:41:17;;;;;;;10.13;4.90;;;;;;;-145.79;77.70;76656.66;5240718;28;20083;-72
2023/04/12 11:43:48;;;;;;;12.93;4.93;;;;;;;-145.79;76.23;76650.31;5223543;28;20029;-71
2023/04/12 11:46:20;;;;;;;16.67;5.13;;;;;;;-145.79;75.00;76654.53;5241060;28;20470;-74
2023/04/12 11:48:52;;;;;;;12.32;3.88;;;;;;;-145.79;75.26;76637.59;5239467;28;20025;-73
2023/04/12 11:51:29;;;;;;;11.38;4.95;;;;;;;-145.79;76.91;76607.91;5241135;28;20028;-73
2023/04/12 11:54:01;;;;;;;15.10;4.50;;;;;;;-145.79;73.18;76610.03;5238204;28;20034;-71
2023/04/12 11:56:32;;;;;;;15.02;5.47;;;;;;;-145.79;74.12;76580.38;5239424;28;20033;-71
2023/04/12 11:59:05;;;;;;;12.90;4.43;;;;;;;-145.79;71.70;76574.00;5240113;28;20033;-74
2023/04/12 12:01:36;;;;;;;12.60;4.50;;;;;;;-145.79;70.12;76571.91;5240544;28;20028;-75
2023/04/12 12:04:08;;;;;;;10.77;3.78;;;;;;;-145.79;69.93;76576.13;5239973;28;20034;-74
2023/04/12 12:06:39;;;;;;;9.75;4.45;;;;;;;-145.79;68.18;76639.72;5241168;28;20090;-76
2023/04/12 12:09:12;;;;;;;11.73;4.03;;;;;;;-145.79;71.16;76686.34;5243150;28;20057;-76
2023/04/12 12:11:43;;;;;;;10.13;4.40;;;;;;;-145.79;71.42;76779.59;5242092;28;20025;-75
2023/04/12 12:14:18;;;;;;;9.27;4.30;;;;;;;-145.79;74.68;76802.91;5244465;28;20052;-75
2023/04/12 12:16:55;;;;;;;10.05;4.18;;;;;;;-145.79;75.10;76826.22;5244365;28;20109;-76
2023/04/12 12:19:31;;;;;;;8.68;4.30;;;;;;;-145.79;75.06;76807.13;5244841;28;20470;-77
2023/04/12 12:22:16;;;;;;;9.63;5.18;;;;;;;-145.79;74.18;76845.28;5244181;28;20048;-76
2023/04/12 12:24:57;;;;;;;12.93;4.85;;;;;;;-145.79;75.38;76847.41;5244189;28;20079;-76
2023/04/12 12:27:36;;;;;;;27.20;20.55;;;;;;;-145.79;77.26;76824.09;5242531;28;20033;-76
2023/04/12 12:30:10;;;;;;;9.23;4.57;;;;;;;-145.79;76.24;76868.59;5243416;28;20107;-74
2023/04/12 12:32:41;;;;;;;13.55;5.25;;;;;;;-145.79;77.35;76860.13;5243777;28;20060;-71
2023/04/12 12:35:14;;;;;;;9.43;4.75;;;;;;;-145.79;77.72;76847.41;5244017;28;20018;-73
2023/04/12 12:37:54;;;;;;;10.95;6.10;;;;;;;-145.79;79.12;76788.06;5243600;28;20075;-74
2023/04/12 12:40:31;;;;;;;11.48;5.10;;;;;;;-145.79;78.53;76749.91;5242358;28;20060;-73
2023/04/12 12:43:02;;;;;;;8.98;4.35;;;;;;;-145.79;79.12;76732.97;5241942;28;20029;-73
2023/04/12 12:45:35;;;;;;;10.75;4.40;;;;;;;-145.79;77.96;76701.16;5243077;28;20401;-75
2023/04/12 12:48:06;;;;;;;12.80;4.40;;;;;;;-145.79;76.03;76671.50;5238882;28;20037;-75
2023/04/12 12:50:39;;;;;;;12.27;4.50;;;;;;;-145.79;74.45;76686.34;5235590;28;20319;-74
2023/04/12 12:53:10;;;;;;;8.32;3.70;;;;;;;-145.79;74.52;76694.81;5243213;28;20083;-74
2023/04/12 12:55:42;;;;;;;9.32;4.53;;;;;;;-145.79;75.30;76690.56;5243288;28;20017;-74
2023/04/12 12:58:13;;;;;;;9.40;4.13;;;;;;;-145.79;76.47;76675.75;5242703;28;20080;-74
2023/04/12 13:00:44;;;;;;;8.43;4.47;;;;;;;-145.79;76.33;76667.25;5243138;28;20117;-73
2023/04/12 13:03:16;;;;;;;9.40;3.88;;;;;;;-145.79;75.42;76677.84;5242005;28;20025;-75
2023/04/12 13:05:47;;;;;;;7.55;3.42;;;;;;;-145.79;74.79;76686.34;5246621;28;20040;-75
2023/04/12 13:08:19;;;;;;;21.85;16.13;;;;;;;-145.79;75.54;76699.06;5239828;28;20021;-75
2023/04/12 13:10:50;;;;;;;8.32;4.72;;;;;;;-145.79;75.21;76718.13;5230522;28;20041;-76
2023/04/12 13:13:22;;;;;;;6.45;3.30;;;;;;;-145.79;74.71;76720.25;5232026;28;20390;-76
2023/04/12 13:15:53;;;;;;;11.63;5.38;;;;;;;-145.79;76.12;76735.06;5221250;28;20041;-76
2023/04/12 13:18:24;;;;;;;8.10;4.03;;;;;;;-145.79;75.42;76775.34;5230132;28;20014;-76
2023/04/12 13:20:56;;;;;;;9.68;4.07;;;;;;;-145.79;76.50;76853.75;5242397;28;20052;-76
2023/04/12 13:23:27;;;;;;;3.60;1.63;;;;;;;-145.79;72.29;76900.38;5235110;28;20026;-76
2023/04/12 13:25:58;;;;;;;3.47;1.63;;;;;;;-145.79;74.19;76904.63;5221950;28;20014;-76
2023/04/12 13:28:30;;;;;;;4.43;1.83;;;;;;;-145.79;76.21;76923.69;5221870;28;20025;-75
2023/04/12 13:31:04;;;;;;;6.55;2.97;;;;;;;-145.79;77.41;76898.25;5242323;28;20022;-74
2023/04/12 13:33:36;;;;;;;7.25;2.47;;;;;;;-145.79;77.40;76889.78;5243365;28;20037;-76
2023/04/12 13:36:08;;;;;;;5.15;2.00;;;;;;;-145.79;78.14;76868.59;5245009;28;20021;-77
2023/04/12 13:38:39;;;;;;;18.55;14.88;;;;;;;-145.79;79.51;76832.56;5241520;28;20037;-75
2023/04/12 13:41:10;;;;;;;3.75;2.40;;;;;;;-145.79;77.05;76826.22;5242484;28;20136;-77
2023/04/12 13:43:41;;;;;;;7.47;5.47;;;;;;;-145.79;78.51;76809.25;5241889;28;20080;-74
2023/04/12 13:46:13;;;;;;;3.55;1.67;;;;;;;-145.79;74.71;76817.72;5238183;28;20532;-76
2023/04/12 13:48:45;;;;;;;2.35;1.48;;;;;;;-145.79;74.51;76802.91;5228429;28;20044;-74
2023/04/12 13:51:16;;;;;;;4.38;1.95;;;;;;;-145.79;75.72;76790.19;5241765;28;20033;-74
2023/04/12 13:53:48;;;;;;;3.65;2.15;;;;;;;-145.79;76.15;76779.59;5237518;28;20033;-75
2023/04/12 13:56:20;;;;;;;2.80;1.95;;;;;;;-145.79;75.85;76779.59;5223979;28;20053;-72
2023/04/12 13:58:51;;;;;;;3.10;1.77;;;;;;;-145.79;77.39;76730.84;5226143;28;20030;-73
2023/04/12 14:01:24;;;;;;;2.78;1.63;;;;;;;-145.79;75.47;76703.28;5230193;28;20032;-74
2023/04/12 14:03:55;;;;;;;5.68;1.85;;;;;;;-145.79;75.29;76684.22;5240420;28;20380;-70
2023/04/12 14:06:28;;;;;;;3.72;1.90;;;;;;;-145.79;74.28;76684.22;5234165;28;20037;-71
2023/04/12 14:08:59;;;;;;;2.55;1.70;;;;;;;-145.79;74.50;76648.19;5240805;28;20034;-70
2023/04/12 14:11:45;;;;;;;3.83;1.50;;;;;;;-145.79;75.27;76646.06;5238378;28;20465;-70
2023/04/12 14:14:16;;;;;;;2.90;2.25;;;;;;;-145.79;72.11;76656.66;5235126;28;20044;-69
2023/04/12 14:16:50;;;;;;;2.83;1.95;;;;;;;-145.79;72.70;76658.78;5238096;28;20017;-71
2023/04/12 14:19:22;;;;;;;4.70;2.10;;;;;;;-145.79;73.04;76663.03;5227591;28;20453;-69
2023/04/12 14:21:54;;;;;;;3.05;2.00;;;;;;;-145.79;74.67;76665.16;5235801;28;20053;-70
2023/04/12 14:24:25;;;;;;;3.65;1.98;;;;;;;-145.79;73.96;76690.56;5229399;28;20088;-70
2023/04/12 14:26:58;;;;;;;3.88;1.95;;;;;;;-145.79;72.69;76724.47;5234863;28;20026;-69
2023/04/12 14:29:29;;;;;;;4.72;1.90;;;;;;;-145.79;71.87;76749.91;5248654;28;20481;-71
2023/04/12 14:32:00;;;;;;;2.38;1.77;;;;;;;-145.79;74.94;76741.44;5240571;28;20021;-74
2023/04/12 14:34:32;;;;;;;4.63;3.08;;;;;;;-145.79;76.40;76819.84;5241689;28;20047;-73
2023/04/12 14:37:07;;;;;;;4.60;1.42;;;;;;;-145.79;73.98;76898.25;5222915;28;20029;-74
2023/04/12 14:39:38;;;;;;;1.95;0.93;;;;;;;-145.79;74.30;76921.59;5225622;28;20037;-74
2023/04/12 14:42:10;;;;;;;2.45;1.00;;;;;;;-145.79;75.08;76936.41;5222703;28;20033;-73
2023/04/12 14:44:41;;;;;;;2.30;1.50;;;;;;;-145.79;76.16;76953.38;5233778;28;20064;-73
2023/04/12 14:47:12;;;;;;;2.70;0.98;;;;;;;-145.79;76.40;76944.91;5241368;28;20520;-73
2023/04/12 14:49:43;;;;;;;0.95;0.80;;;;;;;-145.79;76.08;76953.38;5238909;28;20757;-75
2023/04/12 14:52:15;;;;;;;7.60;6.78;;;;;;;-145.79;76.29;76953.38;5238395;28;20036;-73
2023/04/12 14:54:46;;;;;;;2.25;1.60;;;;;;;-145.79;77.07;76957.59;5227615;28;20026;-77
2023/04/12 14:57:18;;;;;;;1.35;1.00;;;;;;;-145.79;76.34;76927.94;5217360;28;20030;-73
2023/04/12 14:59:49;;;;;;;1.98;0.90;;;;;;;-145.79;76.08;76938.53;5217222;28;20084;-73
2023/04/12 15:02:20;;;;;;;3.03;1.05;;;;;;;-145.79;76.37;76942.78;5226768;28;20424;-72
2023/04/12 15:04:52;;;;;;;1.85;1.00;;;;;;;-145.79;75.16;76938.53;5248784;28;20027;-74
2023/04/12 15:07:23;;;;;;;2.35;0.85;;;;;;;-145.79;74.84;76917.34;5251534;28;20491;-73
2023/04/12 15:09:56;;;;;;;1.90;0.98;;;;;;;-145.79;74.96;76902.50;5233877;28;20030;-72
2023/04/12 15:12:28;;;;;;;1.80;1.05;;;;;;;-145.79;75.12;76889.78;5254021;28;20051;-71
2023/04/12 15:15:01;;;;;;;3.40;2.30;;;;;;;-145.79;74.65;76898.25;5240035;28;20022;-71
2023/04/12 15:17:36;;;;;;;5.22;2.60;;;;;;;-145.79;75.68;76896.16;5239813;28;20025;-75
2023/04/12 15:20:10;;;;;;;4.30;2.42;;;;;;;-145.79;75.89;76889.78;5235601;28;20038;-71
2023/04/12 15:22:42;;;;;;;3.80;2.08;;;;;;;-145.79;76.21;76872.84;5217959;28;20042;-72
2023/04/12 15:25:14;;;;;;;2.95;1.67;;;;;;;-145.79;75.63;76872.84;5218296;28;20125;-72
2023/04/12 15:27:46;;;;;;;3.78;1.80;;;;;;;-145.79;76.61;76864.34;5222515;28;20071;-72
2023/04/12 15:30:17;;;;;;;5.45;1.90;;;;;;;-145.79;76.11;76860.13;5228653;28;20029;-73
2023/04/12 15:32:49;;;;;;;4.65;2.50;;;;;;;-145.79;76.22;76851.63;5239752;28;20034;-73
2023/04/12 15:35:21;;;;;;;3.53;1.90;;;;;;;-145.79;76.21;76858.00;5239386;28;20080;-72
2023/04/12 15:37:53;;;;;;;2.25;1.73;;;;;;;-145.79;74.72;76838.94;5240112;28;20477;-72
2023/04/12 15:40:25;;;;;;;2.28;1.90;;;;;;;-145.79;76.48;76813.50;5240001;28;20022;-72
2023/04/12 15:42:56;;;;;;;3.33;1.65;;;;;;;-145.79;74.91;76800.78;5238562;28;20032;-72
2023/04/12 15:45:27;;;;;;;2.53;1.70;;;;;;;-145.79;74.71;76769.00;5243838;28;20033;-73
2023/04/12 15:47:59;;;;;;;1.50;1.40;;;;;;;-145.79;73.90;76732.97;5233756;28;20478;-73
2023/04/12 15:50:30;;;;;;;2.05;1.85;;;;;;;-145.79;74.86;76707.53;5233278;28;20056;-73
2023/04/12 15:53:02;;;;;;;2.65;2.25;;;;;;;-145.79;72.33;76690.56;5243515;28;20036;-73
2023/04/12 15:55:33;;;;;;;4.07;2.20;;;;;;;-145.79;73.10;76652.44;5243979;28;20053;-73
2023/04/12 15:58:05;;;;;;;2.55;1.38;;;;;;;-145.79;71.35;76652.44;5244374;28;20176;-72
2023/04/12 16:00:37;;;;;;;2.90;1.83;;;;;;;-145.79;72.36;76643.94;5243622;28;20029;-74
2023/04/12 16:03:08;;;;;;;3.97;1.50;;;;;;;-145.79;71.52;76637.59;5243251;28;20396;-74
2023/04/12 16:05:39;;;;;;;2.15;1.75;;;;;;;-145.79;73.06;76643.94;5231075;28;20215;-72
2023/04/12 16:08:11;;;;;;;5.43;2.95;;;;;;;-145.79;73.02;76660.91;5223363;28;20167;-71
2023/04/12 16:10:43;;;;;;;3.55;2.53;;;;;;;-145.79;73.21;76665.16;5235764;28;20025;-68
2023/04/12 16:13:14;;;;;;;19.25;17.42;;;;;;;-145.79;72.86;76682.09;5225637;28;20029;-69
2023/04/12 16:15:46;;;;;;;4.28;2.78;;;;;;;-145.79;72.66;76686.34;5235017;28;20109;-70
2023/04/12 16:18:17;;;;;;;5.07;2.10;;;;;;;-145.79;73.77;76694.81;5241673;28;20037;-71
2023/04/12 16:20:48;;;;;;;2.63;1.92;;;;;;;-145.79;75.38;76688.44;5243662;28;20037;-72
2023/04/12 16:23:20;;;;;;;4.03;1.60;;;;;;;-145.79;72.71;76711.75;5243556;28;20090;-71
2023/04/12 16:25:51;;;;;;;3.33;1.67;;;;;;;-145.79;72.81;76720.25;5232883;28;20069;-71
2023/04/12 16:28:22;;;;;;;3.75;1.92;;;;;;;-145.79;73.37;76726.59;5242064;28;20357;-68
2023/04/12 16:30:55;;;;;;;5.38;1.85;;;;;;;-145.79;73.18;76720.25;5243121;28;20056;-68
2023/04/12 16:33:26;;;;;;;4.00;1.80;;;;;;;-145.79;73.10;76679.97;5243642;28;20410;-71
2023/04/12 16:35:59;;;;;;;2.25;1.73;;;;;;;-145.79;72.27;76667.25;5241763;28;20101;-72
2023/04/12 16:38:31;;;;;;;4.90;2.28;;;;;;;-145.79;72.56;76635.47;5243551;28;20021;-72
2023/04/12 16:41:03;;;;;;;4.35;2.20;;;;;;;-145.79;72.70;76614.28;5231544;28;20049;-71
2023/04/12 16:43:35;;;;;;;5.15;2.80;;;;;;;-145.79;73.13;76605.81;5227130;28;20409;-71
2023/04/12 16:46:06;;;;;;;4.28;1.88;;;;;;;-145.79;70.50;76586.72;5243088;28;20025;-71
2023/04/12 16:48:39;;;;;;;3.90;2.00;;;;;;;-145.79;69.74;76601.56;5243693;28;20129;-71
2023/04/12 16:51:11;;;;;;;3.72;1.80;;;;;;;-145.79;69.38;76580.38;5243526;28;20112;-70
2023/04/12 16:53:42;;;;;;;5.07;2.08;;;;;;;-145.79;69.15;76569.78;5242543;28;20247;-71
